Time;durP1;ratioP1;P1;durP2;ratioP2;P2;SDS_P1;SDS_P2;PMS_P1;PMS_P2;Temp;Humidity;BMP_temperature;BMP_pressure;BME280_temperature;BME280_humidity;BME280_pressure;Samples;Min_cycle;Max_cycle;Signal;HPM_P1;HPM_P2
2022/09/09 00:02:19;;;;;;;9.85;7.95;;;16.00;99.90;;;;;;5022397;28;20045;-74
2022/09/09 00:04:54;;;;;;;9.43;7.13;;;16.00;99.90;;;;;;5015286;28;20041;-74
2022/09/09 00:08:03;;;;;;;8.38;7.15;;;15.90;99.90;;;;;;5020877;28;20056;-73
2022/09/09 00:10:47;;;;;;;11.32;6.75;;;15.90;99.90;;;;;;4889735;29;20052;-73
2022/09/09 00:13:20;;;;;;;8.32;6.93;;;15.80;99.90;;;;;;5001464;28;20053;-73
2022/09/09 00:16:09;;;;;;;12.57;7.15;;;15.80;99.90;;;;;;5024005;28;20094;-73
2022/09/09 00:19:07;;;;;;;11.50;7.00;;;15.70;99.90;;;;;;5018210;28;20037;-73
2022/09/09 00:21:37;;;;;;;10.45;7.00;;;15.70;99.90;;;;;;5025786;28;20049;-73
2022/09/09 00:24:25;;;;;;;12.68;7.60;;;15.70;99.90;;;;;;5007440;28;20582;-74
2022/09/09 00:26:57;;;;;;;9.55;6.78;;;15.70;99.90;;;;;;4972212;28;20564;-73
2022/09/09 00:29:54;;;;;;;11.52;6.20;;;15.70;99.90;;;;;;5023952;28;20041;-73
2022/09/09 00:32:20;;;;;;;12.75;7.00;;;15.70;99.90;;;;;;5000173;28;20676;-74
2022/09/09 00:35:17;;;;;;;9.00;6.78;;;15.70;99.90;;;;;;5003787;28;20037;-74
2022/09/09 00:37:44;;;;;;;;;;;15.60;99.90;;;;;;5026365;28;20133;-74
2022/09/09 00:40:48;;;;;;;9.48;6.63;;;15.60;99.90;;;;;;5023837;28;20384;-74
2022/09/09 00:43:38;;;;;;;10.57;6.90;;;15.60;99.90;;;;;;4991623;28;20053;-73
2022/09/09 00:46:20;;;;;;;11.13;6.50;;;15.60;99.90;;;;;;5025113;28;20038;-74
2022/09/09 00:48:58;;;;;;;10.45;6.90;;;15.60;99.90;;;;;;5024347;28;20060;-73
2022/09/09 00:51:30;;;;;;;9.82;6.55;;;15.60;99.90;;;;;;5012939;28;20108;-74
2022/09/09 00:54:13;;;;;;;10.30;7.38;;;15.60;99.90;;;;;;5020920;28;20128;-73
2022/09/09 00:57:04;;;;;;;11.50;7.53;;;15.70;99.90;;;;;;5025647;28;20081;-74
2022/09/09 00:59:57;;;;;;;13.70;6.97;;;15.60;99.90;;;;;;5020749;28;20064;-73
2022/09/09 01:02:29;;;;;;;11.95;7.18;;;15.70;99.90;;;;;;5004468;28;20076;-73
2022/09/09 01:05:03;;;;;;;9.10;7.15;;;15.70;99.90;;;;;;5005045;28;20053;-73
2022/09/09 01:07:29;;;;;;;11.32;7.03;;;15.70;99.90;;;;;;5023605;28;20546;-74
2022/09/09 01:10:00;;;;;;;12.45;7.47;;;15.80;99.90;;;;;;5003987;28;20034;-73
2022/09/09 01:12:35;;;;;;;12.73;7.10;;;15.80;99.90;;;;;;5023296;28;20050;-74
2022/09/09 01:15:13;;;;;;;10.02;7.07;;;15.80;99.90;;;;;;5005419;28;20096;-73
2022/09/09 01:18:05;;;;;;;13.85;7.65;;;15.90;99.90;;;;;;5023335;28;20041;-73
2022/09/09 01:20:44;;;;;;;9.55;5.88;;;15.90;99.90;;;;;;5021894;28;20057;-73
2022/09/09 01:23:15;;;;;;;8.95;5.78;;;15.90;99.90;;;;;;5020592;28;20492;-74
2022/09/09 01:25:43;;;;;;;9.43;5.55;;;15.90;99.90;;;;;;5021197;28;20049;-73
2022/09/09 01:28:27;;;;;;;8.55;5.70;;;15.90;99.90;;;;;;5020524;28;20069;-73
2022/09/09 01:30:53;;;;;;;9.68;5.93;;;15.90;99.90;;;;;;5004663;28;20340;-73
2022/09/09 01:33:50;;;;;;;10.48;6.03;;;15.90;99.90;;;;;;5003471;28;20169;-74
2022/09/09 01:36:54;;;;;;;10.63;6.22;;;15.90;99.90;;;;;;5007257;28;20061;-73
2022/09/09 01:39:20;;;;;;;8.98;6.20;;;15.90;99.90;;;;;;5004995;28;20056;-73
2022/09/09 01:41:46;;;;;;;9.70;5.97;;;15.90;99.90;;;;;;5022971;28;20118;-73
2022/09/09 01:44:12;;;;;;;8.02;5.88;;;15.90;99.90;;;;;;5022912;28;20176;-74
2022/09/09 01:46:38;;;;;;;9.00;6.07;;;15.90;99.90;;;;;;5024098;28;20492;-73
2022/09/09 01:49:07;;;;;;;9.10;6.00;;;15.80;99.90;;;;;;5008957;28;20200;-73
2022/09/09 01:51:33;;;;;;;11.07;6.05;;;15.80;99.90;;;;;;5009745;28;20042;-73
2022/09/09 01:53:59;;;;;;;9.93;6.18;;;15.90;99.90;;;;;;5021735;28;20049;-74
2022/09/09 01:56:39;;;;;;;10.07;6.40;;;15.80;99.90;;;;;;5026841;28;20295;-73
2022/09/09 01:59:15;;;;;;;12.52;5.78;;;15.90;99.90;;;;;;5025333;28;20045;-73
2022/09/09 02:02:02;;;;;;;9.98;5.43;;;15.80;99.90;;;;;;5009087;28;20080;-74
2022/09/09 02:04:33;;;;;;;8.73;5.50;;;15.80;99.90;;;;;;5027623;28;20038;-73
2022/09/09 02:07:00;;;;;;;8.90;5.63;;;15.80;99.90;;;;;;5006729;28;20401;-73
2022/09/09 02:09:28;;;;;;;10.40;5.60;;;15.70;99.90;;;;;;5027555;28;20041;-73
2022/09/09 02:12:01;;;;;;;10.93;5.70;;;15.80;99.90;;;;;;5025812;28;20056;-73
2022/09/09 02:14:32;;;;;;;9.27;5.85;;;15.70;99.90;;;;;;5026070;28;20111;-73
2022/09/09 02:17:28;;;;;;;8.05;5.28;;;15.70;99.90;;;;;;5003943;28;20061;-73
2022/09/09 02:20:08;;;;;;;9.13;5.28;;;15.70;99.90;;;;;;5016596;28;20041;-74
2022/09/09 02:22:35;;;;;;;10.55;5.72;;;15.70;99.90;;;;;;5024252;28;20121;-73
2022/09/09 02:25:02;;;;;;;8.00;5.40;;;15.60;99.90;;;;;;5024587;28;20037;-73
2022/09/09 02:27:28;;;;;;;7.32;5.57;;;15.60;99.90;;;;;;5019672;28;20106;-73
2022/09/09 02:29:57;;;;;;;10.55;5.70;;;15.60;99.90;;;;;;5007535;28;20042;-73
2022/09/09 02:32:24;;;;;;;7.95;5.45;;;15.60;99.90;;;;;;5006856;28;20053;-73
2022/09/09 02:35:24;;;;;;;13.02;6.25;;;15.60;99.90;;;;;;5025473;28;20520;-73
2022/09/09 02:37:52;;;;;;;10.02;5.45;;;15.60;99.90;;;;;;4963609;28;20103;-73
2022/09/09 02:40:18;;;;;;;10.38;6.05;;;15.60;99.90;;;;;;5026162;28;20574;-73
2022/09/09 02:42:46;;;;;;;11.00;6.45;;;15.60;99.90;;;;;;5008185;28;20037;-73
2022/09/09 02:45:16;;;;;;;11.30;6.22;;;15.50;99.90;;;;;;5027268;28;20071;-73
2022/09/09 02:48:05;;;;;;;9.23;6.43;;;15.50;99.90;;;;;;5024818;28;20477;-73
2022/09/09 02:50:39;;;;;;;9.55;6.00;;;15.60;99.90;;;;;;5025399;28;20394;-73
2022/09/09 02:53:07;;;;;;;11.20;6.25;;;15.60;99.90;;;;;;5025136;28;20128;-73
2022/09/09 02:55:39;;;;;;;8.70;5.97;;;15.60;99.90;;;;;;5006558;28;20072;-73
2022/09/09 02:58:09;;;;;;;7.75;5.90;;;15.60;99.90;;;;;;5005813;28;20053;-73
2022/09/09 03:00:39;;;;;;;9.65;5.15;;;15.60;99.90;;;;;;5005143;28;20376;-73
2022/09/09 03:03:06;;;;;;;6.72;5.15;;;15.60;99.90;;;;;;5025316;28;20572;-73
2022/09/09 03:05:32;;;;;;;9.20;5.28;;;15.70;99.90;;;;;;5026164;28;20095;-74
2022/09/09 03:07:58;;;;;;;6.90;4.47;;;15.60;99.90;;;;;;5025079;28;20037;-73
2022/09/09 03:10:24;;;;;;;6.82;4.43;;;15.70;99.90;;;;;;5025761;28;20045;-73
2022/09/09 03:12:50;;;;;;;6.78;4.22;;;15.70;99.90;;;;;;5020531;28;20104;-73
2022/09/09 03:15:16;;;;;;;7.60;5.03;;;15.70;99.90;;;;;;5024790;28;20137;-73
2022/09/09 03:17:42;;;;;;;9.30;5.20;;;15.70;99.90;;;;;;5024223;28;20080;-73
2022/09/09 03:20:08;;;;;;;8.57;4.90;;;15.70;99.90;;;;;;5022886;28;20069;-73
2022/09/09 03:22:34;;;;;;;11.52;5.75;;;15.70;99.90;;;;;;5005586;28;20115;-73
2022/09/09 03:25:00;;;;;;;7.85;4.75;;;15.70;99.90;;;;;;5027058;28;20044;-73
2022/09/09 03:27:26;;;;;;;7.03;4.55;;;15.70;99.90;;;;;;5020797;28;20041;-73
2022/09/09 03:29:51;;;;;;;8.48;4.35;;;15.60;99.90;;;;;;5005766;28;20508;-73
2022/09/09 03:32:18;;;;;;;7.28;4.50;;;15.70;99.90;;;;;;5024473;28;20040;-73
2022/09/09 03:34:44;;;;;;;7.38;5.50;;;15.70;99.90;;;;;;5007611;28;20107;-73
2022/09/09 03:37:10;;;;;;;10.20;5.90;;;15.60;99.90;;;;;;5022329;28;20057;-74
2022/09/09 03:39:36;;;;;;;8.10;7.00;;;15.70;99.90;;;;;;5022518;28;20107;-73
2022/09/09 03:42:05;;;;;;;8.88;7.10;;;15.70;99.90;;;;;;5027603;28;20117;-73
2022/09/09 03:44:31;;;;;;;9.30;7.60;;;15.70;99.90;;;;;;5005826;28;20064;-75
2022/09/09 03:46:57;;;;;;;11.60;8.40;;;15.60;99.90;;;;;;5027311;28;20087;-75
2022/09/09 03:49:23;;;;;;;11.93;9.05;;;15.60;99.90;;;;;;5002777;28;20076;-75
2022/09/09 03:51:49;;;;;;;12.10;8.63;;;15.60;99.90;;;;;;5005708;28;20056;-75
2022/09/09 03:54:15;;;;;;;13.07;10.00;;;15.60;99.90;;;;;;5015621;28;20041;-74
2022/09/09 03:56:41;;;;;;;9.80;8.80;;;15.60;99.90;;;;;;5008408;28;20412;-75
2022/09/09 03:59:08;;;;;;;11.75;8.93;;;15.60;99.90;;;;;;5021735;28;20037;-73
2022/09/09 04:01:34;;;;;;;11.95;8.75;;;15.60;99.90;;;;;;5005848;28;20050;-75
2022/09/09 04:04:01;;;;;;;9.90;8.93;;;15.60;99.90;;;;;;5007926;28;20511;-75
2022/09/09 04:06:26;;;;;;;11.63;9.23;;;15.60;99.90;;;;;;5005716;28;20484;-75
2022/09/09 04:08:52;;;;;;;12.30;9.30;;;15.60;99.90;;;;;;5021610;28;20049;-74
2022/09/09 04:11:19;;;;;;;10.43;9.27;;;15.70;99.90;;;;;;5021158;28;20548;-74
2022/09/09 04:13:45;;;;;;;9.73;8.73;;;15.60;99.90;;;;;;5024551;28;20092;-74
2022/09/09 04:16:15;;;;;;;13.55;9.68;;;15.60;99.90;;;;;;5021575;28;20045;-74
2022/09/09 04:18:41;;;;;;;10.35;8.60;;;15.60;99.90;;;;;;5024306;28;20046;-74
2022/09/09 04:21:09;;;;;;;10.80;9.13;;;15.60;99.90;;;;;;5024641;28;20141;-75
2022/09/09 04:23:35;;;;;;;12.43;8.98;;;15.60;99.90;;;;;;5021978;28;20034;-74
2022/09/09 04:26:02;;;;;;;11.88;9.05;;;15.60;99.90;;;;;;5006607;28;20057;-74
2022/09/09 04:28:31;;;;;;;11.27;10.00;;;15.60;99.90;;;;;;5018062;28;20068;-74
2022/09/09 04:31:04;;;;;;;10.88;9.48;;;15.60;99.90;;;;;;5022940;28;20045;-74
2022/09/09 04:33:31;;;;;;;11.90;9.45;;;15.60;99.90;;;;;;5022018;28;20120;-73
2022/09/09 04:35:56;;;;;;;13.52;9.65;;;15.60;99.90;;;;;;5025503;28;20088;-76
2022/09/09 04:38:22;;;;;;;11.75;8.98;;;15.60;99.90;;;;;;5024282;28;20073;-74
2022/09/09 04:40:51;;;;;;;10.98;9.40;;;15.60;99.90;;;;;;5021233;28;20524;-76
2022/09/09 04:43:17;;;;;;;12.20;8.93;;;15.60;99.90;;;;;;5025074;28;20068;-75
2022/09/09 04:45:46;;;;;;;12.00;9.17;;;15.50;99.90;;;;;;5004643;28;20049;-75
2022/09/09 04:48:12;;;;;;;11.07;8.77;;;15.40;99.90;;;;;;5019997;28;20057;-75
2022/09/09 04:50:37;;;;;;;10.05;8.95;;;15.50;99.90;;;;;;5005699;28;20488;-75
2022/09/09 04:53:04;;;;;;;9.80;8.73;;;15.50;99.90;;;;;;5025036;28;20120;-75
2022/09/09 04:55:31;;;;;;;12.35;10.30;;;15.50;99.90;;;;;;5019260;28;20083;-75
2022/09/09 04:57:57;;;;;;;13.07;9.93;;;15.50;99.90;;;;;;5007832;28;20048;-75
2022/09/09 05:00:24;;;;;;;11.32;9.23;;;15.50;99.90;;;;;;5017840;28;20038;-74
2022/09/09 05:02:50;;;;;;;10.50;9.40;;;15.50;99.90;;;;;;5024655;28;20139;-75
2022/09/09 05:05:16;;;;;;;11.45;10.07;;;15.40;99.90;;;;;;5004842;28;20083;-75
2022/09/09 05:07:43;;;;;;;10.77;9.55;;;15.50;99.90;;;;;;5020399;28;20493;-75
2022/09/09 05:10:09;;;;;;;11.80;8.70;;;15.40;99.90;;;;;;5007164;28;20042;-75
2022/09/09 05:12:35;;;;;;;10.37;8.77;;;15.40;99.90;;;;;;5006799;28;20045;-75
2022/09/09 05:15:01;;;;;;;11.77;8.40;;;15.40;99.90;;;;;;5020585;28;20327;-75
2022/09/09 05:17:27;;;;;;;10.00;8.05;;;15.50;99.90;;;;;;5019131;28;20128;-76
2022/09/09 05:19:53;;;;;;;9.60;7.95;;;15.50;99.90;;;;;;5005726;28;20092;-75
2022/09/09 05:22:20;;;;;;;8.35;7.53;;;15.40;99.90;;;;;;5005840;28;20080;-75
2022/09/09 05:24:45;;;;;;;8.95;7.50;;;15.40;99.90;;;;;;5017073;28;20053;-75
2022/09/09 05:27:12;;;;;;;9.77;8.20;;;15.40;99.90;;;;;;5023646;28;20377;-75
2022/09/09 05:29:38;;;;;;;9.75;7.38;;;15.40;99.90;;;;;;5021588;28;20053;-73
2022/09/09 05:32:10;;;;;;;9.25;7.47;;;15.40;99.90;;;;;;5022464;28;20353;-74
2022/09/09 05:34:37;;;;;;;9.45;7.25;;;15.40;99.90;;;;;;5006238;28;20049;-74
2022/09/09 05:37:07;;;;;;;8.60;7.53;;;15.40;99.90;;;;;;5018637;28;20544;-75
2022/09/09 05:39:33;;;;;;;9.40;7.68;;;15.40;99.90;;;;;;5022507;28;20496;-74
2022/09/09 05:41:59;;;;;;;11.20;7.50;;;15.30;99.90;;;;;;5008921;28;20040;-74
2022/09/09 05:44:27;;;;;;;8.85;7.13;;;15.40;99.90;;;;;;5027580;28;20506;-74
2022/09/09 05:46:54;;;;;;;10.60;7.30;;;15.40;99.90;;;;;;5030503;28;20722;-75
2022/09/09 05:49:23;;;;;;;9.90;7.40;;;15.40;99.90;;;;;;5022742;28;20041;-75
2022/09/09 05:51:50;;;;;;;8.13;7.32;;;15.40;99.90;;;;;;5024422;28;20080;-74
2022/09/09 05:54:19;;;;;;;10.52;7.90;;;15.40;99.90;;;;;;5023461;28;20537;-74
2022/09/09 05:56:45;;;;;;;10.30;8.20;;;15.40;99.90;;;;;;5009693;28;20438;-73
2022/09/09 05:59:12;;;;;;;14.30;8.60;;;15.50;99.90;;;;;;5021417;28;20049;-74
2022/09/09 06:01:40;;;;;;;8.88;7.97;;;15.60;99.90;;;;;;5018722;28;20052;-74
2022/09/09 06:04:07;;;;;;;8.55;7.70;;;15.50;99.90;;;;;;5006338;28;20571;-74
2022/09/09 06:06:36;;;;;;;10.23;8.65;;;15.60;99.90;;;;;;5010522;28;20057;-74
2022/09/09 06:09:09;;;;;;;11.15;8.25;;;15.60;99.90;;;;;;5025732;28;20102;-74
2022/09/09 06:11:40;;;;;;;9.10;8.25;;;15.60;99.90;;;;;;5023571;28;20042;-73
2022/09/09 06:14:06;;;;;;;;;;;15.70;99.90;;;;;;5005165;28;20420;-73
2022/09/09 06:16:34;;;;;;;9.15;7.68;;;15.70;99.90;;;;;;5012358;28;19924;-73
2022/09/09 06:19:02;;;;;;;9.70;8.25;;;15.70;99.90;;;;;;5023604;28;20083;-73
2022/09/09 06:21:32;;;;;;;10.82;8.10;;;15.70;99.90;;;;;;5022670;28;20045;-73
2022/09/09 06:23:59;;;;;;;8.82;7.85;;;15.70;99.90;;;;;;5005002;28;20045;-71
2022/09/09 06:26:48;;;;;;;9.68;8.18;;;15.70;99.90;;;;;;5009896;28;20757;-75
2022/09/09 06:29:13;;;;;;;10.02;8.20;;;15.80;99.90;;;;;;5006316;28;21770;-83
2022/09/09 06:31:41;;;;;;;11.60;7.72;;;15.80;99.90;;;;;;5007458;28;20064;-78
2022/09/09 06:34:08;;;;;;;9.88;8.20;;;15.80;99.90;;;;;;5020836;28;20127;-83
2022/09/09 06:36:35;;;;;;;;;;;15.90;99.90;;;;;;5023468;28;20630;-82
2022/09/09 06:39:01;;;;;;;10.95;8.10;;;15.80;99.90;;;;;;5026949;28;19921;-84
2022/09/09 06:41:28;;;;;;;10.32;8.10;;;15.90;99.90;;;;;;5028504;28;20037;-83
2022/09/09 06:43:57;;;;;;;8.98;8.05;;;15.90;99.90;;;;;;5008506;28;20036;-83
2022/09/09 06:46:29;;;;;;;9.40;8.00;;;15.90;99.90;;;;;;5009389;28;20046;-78
2022/09/09 06:48:57;;;;;;;10.57;8.52;;;15.90;99.90;;;;;;5021324;28;20037;-79
2022/09/09 06:51:25;;;;;;;9.88;8.55;;;16.00;99.90;;;;;;5029093;28;20042;-82
2022/09/09 06:53:56;;;;;;;11.88;8.27;;;16.00;99.90;;;;;;5022385;28;20067;-80
2022/09/09 06:56:31;;;;;;;9.20;8.23;;;16.00;99.90;;;;;;5027252;28;20045;-81
2022/09/09 06:58:58;;;;;;;11.02;8.63;;;16.10;99.90;;;;;;5022418;28;20041;-80
2022/09/09 07:01:30;;;;;;;12.20;9.00;;;16.10;99.90;;;;;;5014098;28;20153;-81
2022/09/09 07:04:01;;;;;;;10.07;8.30;;;16.10;99.90;;;;;;5027970;28;20041;-77
2022/09/09 07:06:46;;;;;;;10.13;7.85;;;16.20;99.90;;;;;;5000033;28;20045;-77
2022/09/09 07:09:14;;;;;;;14.10;8.55;;;16.20;99.90;;;;;;5005704;28;20107;-77
2022/09/09 07:12:00;;;;;;;12.30;8.07;;;16.30;99.90;;;;;;5026576;28;20077;-77
2022/09/09 07:14:26;;;;;;;11.57;8.07;;;16.30;99.90;;;;;;5028967;28;20041;-78
2022/09/09 07:16:51;;;;;;;10.70;8.23;;;16.40;99.90;;;;;;5027312;28;20451;-78
2022/09/09 07:19:17;;;;;;;12.40;8.05;;;16.40;99.90;;;;;;5029077;28;20121;-78
2022/09/09 07:21:43;;;;;;;11.20;7.82;;;16.50;99.90;;;;;;4991153;28;20053;-77
2022/09/09 07:24:26;;;;;;;10.35;7.80;;;16.50;99.90;;;;;;5025989;28;20504;-79
2022/09/09 07:29:35;;;;;;;10.48;8.18;;;16.60;99.90;;;;;;4970369;28;20130;-79
2022/09/09 07:32:02;;;;;;;11.50;7.80;;;16.60;99.90;;;;;;4969011;28;20093;-80
2022/09/09 07:34:28;;;;;;;10.77;7.65;;;16.70;99.90;;;;;;4969101;28;20121;-80
2022/09/09 07:36:54;;;;;;;9.93;7.35;;;16.80;99.90;;;;;;4970120;28;20142;-80
2022/09/09 07:39:19;;;;;;;9.75;7.13;;;16.90;99.90;;;;;;4966683;28;20031;-79
2022/09/09 07:41:47;;;;;;;11.43;7.43;;;17.00;99.90;;;;;;4968897;28;20453;-79
2022/09/09 07:44:21;;;;;;;11.15;7.30;;;16.90;99.90;;;;;;4966465;28;20537;-79
2022/09/09 07:46:47;;;;;;;10.40;6.93;;;17.00;99.90;;;;;;4970279;28;20053;-79
2022/09/09 07:49:13;;;;;;;10.68;6.70;;;17.10;99.90;;;;;;4965672;28;20042;-77
2022/09/09 07:51:42;;;;;;;10.13;7.07;;;17.10;99.90;;;;;;4963073;28;20058;-80
2022/09/09 07:54:10;;;;;;;10.60;6.53;;;17.20;99.90;;;;;;4966623;28;20039;-79
2022/09/09 07:56:37;;;;;;;10.57;6.47;;;17.20;99.90;;;;;;4977216;28;20039;-80
2022/09/09 07:59:06;;;;;;;10.50;6.27;;;17.30;99.90;;;;;;4965918;28;20109;-75
2022/09/09 08:01:39;;;;;;;10.90;6.55;;;17.30;99.90;;;;;;4968368;28;20333;-75
2022/09/09 08:04:08;;;;;;;13.25;7.82;;;17.30;99.90;;;;;;4965460;28;20051;-75
2022/09/09 08:06:39;;;;;;;12.55;6.75;;;17.40;99.90;;;;;;4969696;28;20183;-75
2022/09/09 08:09:07;;;;;;;9.90;6.75;;;17.50;99.90;;;;;;4962279;28;20057;-75
2022/09/09 08:11:33;;;;;;;10.45;7.00;;;17.50;99.90;;;;;;4967273;28;20093;-75
2022/09/09 08:13:59;;;;;;;16.63;6.30;;;17.60;99.90;;;;;;4968587;28;20378;-75
2022/09/09 08:16:36;;;;;;;13.00;6.57;;;17.70;99.90;;;;;;4966113;28;20106;-74
2022/09/09 08:19:03;;;;;;;11.70;6.47;;;17.80;99.90;;;;;;4958536;28;20475;-75
2022/09/09 08:21:31;;;;;;;11.83;6.37;;;17.80;99.90;;;;;;4965476;28;20042;-75
2022/09/09 08:23:59;;;;;;;11.88;5.88;;;17.90;99.90;;;;;;4998315;28;20130;-73
2022/09/09 08:26:31;;;;;;;8.90;5.63;;;17.90;99.90;;;;;;4966961;28;20047;-75
2022/09/09 08:28:58;;;;;;;12.48;5.57;;;17.90;99.90;;;;;;4963083;28;20065;-75
2022/09/09 08:31:27;;;;;;;9.15;6.03;;;17.90;99.90;;;;;;4966919;28;20051;-75
2022/09/09 08:33:54;;;;;;;9.50;5.55;;;18.00;99.90;;;;;;4965530;28;20272;-76
2022/09/09 08:36:21;;;;;;;10.77;5.40;;;18.00;99.90;;;;;;4962867;28;20148;-74
2022/09/09 08:38:54;;;;;;;12.88;5.70;;;18.00;99.90;;;;;;4965932;28;20039;-75
2022/09/09 08:41:48;;;;;;;12.73;6.05;;;18.00;99.90;;;;;;4969058;28;20054;-75
2022/09/09 08:44:36;;;;;;;12.07;5.75;;;18.10;99.90;;;;;;4963430;28;20054;-75
2022/09/09 08:47:26;;;;;;;9.25;5.10;;;18.10;99.90;;;;;;4967418;28;20055;-73
2022/09/09 08:50:33;;;;;;;11.80;5.25;;;18.20;99.90;;;;;;4984840;28;20421;-74
2022/09/09 08:53:08;;;;;;;9.73;5.53;;;18.30;99.90;;;;;;4960896;28;20141;-74
2022/09/09 08:55:52;;;;;;;15.02;5.55;;;18.30;99.90;;;;;;4966952;28;20134;-73
2022/09/09 08:58:24;;;;;;;10.43;5.10;;;18.40;99.90;;;;;;4967312;28;20043;-73
2022/09/09 09:00:53;;;;;;;8.98;5.22;;;18.30;99.90;;;;;;4964167;28;20034;-74
2022/09/09 09:03:28;;;;;;;11.05;5.47;;;18.30;99.90;;;;;;4963206;28;20054;-73
2022/09/09 09:05:59;;;;;;;7.90;4.97;;;18.30;99.90;;;;;;4965321;28;20047;-75
2022/09/09 09:08:46;;;;;;;8.40;4.55;;;18.40;99.90;;;;;;4962567;28;20073;-76
2022/09/09 09:11:11;;;;;;;9.75;4.43;;;18.40;99.90;;;;;;4963795;28;20058;-75
2022/09/09 09:13:43;;;;;;;8.18;3.97;;;18.40;99.90;;;;;;4960309;28;20539;-76
2022/09/09 09:16:33;;;;;;;14.82;3.90;;;18.50;99.90;;;;;;4964013;28;20054;-76
2022/09/09 09:19:00;;;;;;;11.15;3.72;;;18.50;99.90;;;;;;4965147;28;20074;-76
2022/09/09 09:21:54;;;;;;;12.43;4.07;;;18.50;99.90;;;;;;4963340;28;20061;-75
2022/09/09 09:24:32;;;;;;;12.48;4.40;;;18.50;99.90;;;;;;4947518;29;20055;-76
2022/09/09 09:27:07;;;;;;;10.02;4.00;;;18.60;99.90;;;;;;4948941;29;20042;-76
2022/09/09 09:29:34;;;;;;;10.30;3.13;;;18.60;99.90;;;;;;4947989;29;20051;-76
2022/09/09 09:32:03;;;;;;;12.25;2.92;;;18.70;99.90;;;;;;4947923;29;20043;-75
2022/09/09 09:34:28;;;;;;;9.70;2.88;;;18.90;99.90;;;;;;4948864;29;20056;-76
2022/09/09 09:37:01;;;;;;;10.07;2.95;;;19.00;99.90;;;;;;4956993;28;20097;-76
2022/09/09 09:39:38;;;;;;;10.27;2.70;;;19.00;99.90;;;;;;4999161;28;20129;-76
2022/09/09 09:42:15;;;;;;;9.63;2.65;;;19.10;99.90;;;;;;4998579;28;20055;-76
2022/09/09 09:44:41;;;;;;;;;;;19.10;99.90;;;;;;4969682;28;20076;-76
2022/09/09 09:47:19;;;;;;;8.13;2.80;;;19.20;99.90;;;;;;4966754;28;20368;-76
2022/09/09 09:49:56;;;;;;;12.60;3.17;;;19.30;99.90;;;;;;4968072;28;20670;-76
2022/09/09 09:52:25;;;;;;;10.35;2.83;;;19.40;99.90;;;;;;4961549;28;20122;-76
2022/09/09 09:54:52;;;;;;;8.40;2.35;;;19.60;99.90;;;;;;4998047;28;20046;-76
2022/09/09 09:57:23;;;;;;;11.82;2.70;;;19.60;99.90;;;;;;4966546;28;20047;-78
2022/09/09 09:59:59;;;;;;;8.82;2.30;;;19.70;99.90;;;;;;4964225;28;20054;-78
2022/09/09 10:02:26;;;;;;;7.75;2.65;;;19.60;99.90;;;;;;4961514;28;20085;-78
2022/09/09 10:05:21;;;;;;;11.10;2.90;;;19.60;99.90;;;;;;4997751;28;20046;-77
2022/09/09 10:08:13;;;;;;;9.13;2.63;;;19.60;99.90;;;;;;4959703;28;20147;-81
2022/09/09 10:10:39;;;;;;;7.72;2.25;;;19.60;99.90;;;;;;4966238;28;20078;-76
2022/09/09 10:13:13;;;;;;;10.90;2.75;;;19.60;99.90;;;;;;4965794;28;20085;-78
2022/09/09 10:15:52;;;;;;;10.00;2.70;;;19.70;99.90;;;;;;4969115;28;20043;-75
2022/09/09 10:18:23;;;;;;;9.27;2.38;;;19.80;99.90;;;;;;4968397;28;20043;-76
2022/09/09 10:21:16;;;;;;;12.35;2.72;;;19.90;99.90;;;;;;4965424;28;20039;-78
2022/09/09 10:24:10;;;;;;;13.95;2.50;;;20.00;99.90;;;;;;4967957;28;20075;-81
2022/09/09 10:27:00;;;;;;;6.55;2.33;;;20.10;99.90;;;;;;4962153;28;20402;-77
2022/09/09 10:29:44;;;;;;;9.93;2.70;;;20.00;99.90;;;;;;4975477;28;20158;-77
2022/09/09 10:32:35;;;;;;;11.68;3.30;;;20.10;99.90;;;;;;4988415;28;20042;-77
2022/09/09 10:35:04;;;;;;;10.10;2.55;;;20.00;99.90;;;;;;4986853;28;20286;-76
2022/09/09 10:38:10;;;;;;;10.75;2.78;;;20.10;99.90;;;;;;4987203;28;20030;-77
2022/09/09 10:40:36;;;;;;;11.57;2.60;;;20.10;99.90;;;;;;4986709;28;20053;-76
2022/09/09 10:43:28;;;;;;;10.23;2.33;;;20.10;99.90;;;;;;4987260;28;20578;-77
2022/09/09 10:46:20;;;;;;;7.80;2.35;;;20.10;99.90;;;;;;4983222;28;20046;-78
2022/09/09 10:48:45;;;;;;;10.02;2.90;;;20.10;99.90;;;;;;4964259;28;20054;-78
2022/09/09 10:51:18;;;;;;;9.57;2.30;;;20.30;99.90;;;;;;4968889;28;20054;-77
2022/09/09 10:54:09;;;;;;;9.25;2.15;;;20.40;99.90;;;;;;4985585;28;20061;-75
2022/09/09 10:56:36;;;;;;;9.18;2.22;;;20.40;99.90;;;;;;4977431;28;20589;-76
2022/09/09 10:59:14;;;;;;;10.27;2.80;;;20.30;99.90;;;;;;4966500;28;20505;-76
2022/09/09 11:01:52;;;;;;;10.45;2.47;;;20.30;99.90;;;;;;4968077;28;20050;-76
2022/09/09 11:04:28;;;;;;;8.98;2.45;;;20.30;99.90;;;;;;4969227;28;20046;-76
2022/09/09 11:06:57;;;;;;;6.65;1.92;;;20.30;99.90;;;;;;4966888;28;20774;-76
2022/09/09 11:09:28;;;;;;;8.88;2.15;;;20.20;99.90;;;;;;4986297;28;20050;-72
2022/09/09 11:11:56;;;;;;;9.57;2.40;;;20.20;99.90;;;;;;4984761;28;20069;-74
2022/09/09 11:14:34;;;;;;;10.25;2.72;;;20.20;99.90;;;;;;4985677;28;20038;-74
2022/09/09 11:17:03;;;;;;;12.35;2.70;;;20.30;99.90;;;;;;4987626;28;20046;-74
2022/09/09 11:19:41;;;;;;;10.95;2.40;;;20.40;99.90;;;;;;4965971;28;20057;-76
2022/09/09 11:22:25;;;;;;;9.70;2.08;;;20.60;99.90;;;;;;4965391;28;20058;-74
2022/09/09 11:24:57;;;;;;;5.95;1.95;;;20.70;99.90;;;;;;4986209;28;20042;-75
2022/09/09 11:27:34;;;;;;;4.80;1.55;;;20.90;99.90;;;;;;4952965;28;20464;-76
2022/09/09 11:30:06;;;;;;;8.52;2.00;;;21.00;99.90;;;;;;4986719;28;20061;-77
2022/09/09 11:33:14;;;;;;;6.38;2.35;;;21.00;99.90;;;;;;4984028;28;20626;-75
2022/09/09 11:35:42;;;;;;;7.38;1.63;;;21.00;99.90;;;;;;4949636;28;20569;-76
2022/09/09 11:38:15;;;;;;;7.80;1.48;;;21.10;99.90;;;;;;4986480;28;22103;-72
2022/09/09 11:40:41;;;;;;;7.13;1.85;;;21.10;99.90;;;;;;4960465;28;20066;-72
2022/09/09 11:43:42;;;;;;;8.95;1.95;;;21.10;99.90;;;;;;4969132;28;20054;-72
2022/09/09 11:46:09;;;;;;;7.78;1.80;;;21.10;99.90;;;;;;4961203;28;20069;-74
2022/09/09 11:48:36;;;;;;;;;;;21.10;99.90;;;;;;4984714;28;20050;-74
2022/09/09 11:51:13;;;;;;;6.75;2.10;;;21.20;99.90;;;;;;4982502;28;19922;-74
2022/09/09 11:53:51;;;;;;;9.38;2.40;;;21.20;99.90;;;;;;4986036;28;20046;-74
2022/09/09 11:56:31;;;;;;;10.18;1.85;;;21.40;99.90;;;;;;4968983;28;20058;-74
2022/09/09 11:59:05;;;;;;;10.60;2.80;;;21.50;99.90;;;;;;4968139;28;20050;-73
2022/09/09 12:01:37;;;;;;;9.95;2.03;;;21.50;99.90;;;;;;4984177;28;20093;-73
2022/09/09 12:04:25;;;;;;;13.68;4.80;;;21.40;99.90;;;;;;4987642;28;20054;-75
2022/09/09 12:07:07;;;;;;;7.78;2.35;;;21.40;99.90;;;;;;4965355;28;20073;-76
2022/09/09 12:09:45;;;;;;;8.63;2.70;;;21.40;99.90;;;;;;4957847;28;20561;-75
2022/09/09 12:12:11;;;;;;;9.27;2.10;;;21.50;99.90;;;;;;4965430;28;20046;-75
2022/09/09 12:14:43;;;;;;;5.93;1.83;;;21.60;99.90;;;;;;4985829;28;20057;-75
2022/09/09 12:17:14;;;;;;;8.60;1.98;;;21.70;99.90;;;;;;4962005;28;20043;-75
2022/09/09 12:19:41;;;;;;;18.58;2.40;;;21.90;99.90;;;;;;4969944;28;20129;-75
2022/09/09 12:22:38;;;;;;;8.25;1.75;;;22.00;99.90;;;;;;4983011;28;20046;-73
2022/09/09 12:25:23;;;;;;;7.07;1.50;;;22.20;99.90;;;;;;4992978;28;20465;-73
2022/09/09 12:28:09;;;;;;;6.13;1.48;;;22.30;99.90;;;;;;4996940;28;20050;-72
2022/09/09 12:30:49;;;;;;;8.93;2.20;;;22.30;99.90;;;;;;4981195;28;20400;-73
2022/09/09 12:33:18;;;;;;;4.18;1.25;;;22.10;99.90;;;;;;4967679;28;20054;-73
2022/09/09 12:35:51;;;;;;;7.97;1.85;;;22.00;99.90;;;;;;4973232;28;20470;-73
2022/09/09 12:38:39;;;;;;;9.57;1.60;;;21.80;99.90;;;;;;4984882;28;20042;-74
2022/09/09 12:41:05;;;;;;;7.55;2.03;;;21.70;99.90;;;;;;4985550;28;20121;-73
2022/09/09 12:43:31;;;;;;;7.53;1.50;;;21.60;99.90;;;;;;4981379;28;20169;-73
2022/09/09 12:46:11;;;;;;;10.70;2.25;;;21.40;99.90;;;;;;4984671;28;20108;-74
2022/09/09 12:48:41;;;;;;;13.10;2.25;;;21.30;99.90;;;;;;4968024;28;20049;-74
2022/09/09 12:51:28;;;;;;;9.10;2.25;;;21.20;99.90;;;;;;4964054;28;20042;-74
2022/09/09 12:53:54;;;;;;;8.88;2.10;;;21.00;99.90;;;;;;4971141;28;20149;-74
2022/09/09 12:56:23;;;;;;;7.83;1.93;;;21.10;99.90;;;;;;4964298;28;20050;-79
2022/09/09 12:58:51;;;;;;;8.50;1.60;;;21.20;99.90;;;;;;4982529;28;20038;-79
2022/09/09 13:01:34;;;;;;;7.18;1.70;;;21.30;99.90;;;;;;4986808;28;20049;-78
2022/09/09 13:04:00;;;;;;;4.35;1.55;;;21.40;99.90;;;;;;4985281;28;20053;-80
2022/09/09 13:06:28;;;;;;;8.10;1.60;;;21.40;99.90;;;;;;4985040;28;20054;-77
2022/09/09 13:08:56;;;;;;;6.85;1.73;;;21.30;99.90;;;;;;4981036;28;20058;-79
2022/09/09 13:11:42;;;;;;;5.03;1.30;;;21.30;99.90;;;;;;4974396;28;20042;-85
2022/09/09 13:14:19;;;;;;;2.78;1.50;;;21.30;99.90;;;;;;4995868;28;20054;-81
2022/09/09 13:16:59;;;;;;;4.38;1.70;;;21.20;99.90;;;;;;4995572;28;20887;-86